createdAt,value
2022-12-18T00:01:36.052Z,-6.03
2022-12-18T00:04:06.319Z,-6.04
2022-12-18T00:06:33.975Z,-6.05
2022-12-18T00:09:02.685Z,-6.08
2022-12-18T00:11:32.058Z,-6.07
2022-12-18T00:14:00.833Z,-6.10
2022-12-18T00:16:29.953Z,-6.13
2022-12-18T00:19:00.635Z,-6.15
2022-12-18T00:21:30.820Z,-6.17
2022-12-18T00:23:59.242Z,-6.18
2022-12-18T00:26:33.492Z,-6.16
2022-12-18T00:29:14.833Z,-6.16
2022-12-18T00:31:44.295Z,-6.19
2022-12-18T00:34:13.673Z,-6.22
2022-12-18T00:36:42.043Z,-6.24
2022-12-18T00:39:10.670Z,-6.29
2022-12-18T00:41:56.179Z,-6.28
2022-12-18T00:44:22.835Z,-6.27
2022-12-18T00:46:51.566Z,-6.28
2022-12-18T00:49:20.775Z,-6.30
2022-12-18T00:51:49.358Z,-6.32
2022-12-18T00:54:17.889Z,-6.34
2022-12-18T00:56:49.345Z,-6.37
2022-12-18T00:59:19.966Z,-6.39
2022-12-18T01:01:47.983Z,-6.40
2022-12-18T01:04:15.865Z,-6.42
2022-12-18T01:06:45.723Z,-6.43
2022-12-18T01:09:14.247Z,-6.44
2022-12-18T01:11:41.159Z,-6.45
2022-12-18T01:14:07.895Z,-6.47
2022-12-18T01:16:34.850Z,-6.49
2022-12-18T01:19:01.716Z,-6.51
2022-12-18T01:21:28.964Z,-6.54
2022-12-18T01:23:57.667Z,-6.55
2022-12-18T01:26:26.835Z,-6.56
2022-12-18T01:28:55.876Z,-6.55
2022-12-18T01:31:29.956Z,-6.58
2022-12-18T01:33:57.627Z,-6.59
2022-12-18T01:36:27.674Z,-6.58
2022-12-18T01:38:56.020Z,-6.49
2022-12-18T01:41:48.444Z,-6.48
2022-12-18T01:45:04.119Z,-6.50
2022-12-18T01:48:11.411Z,-6.53
2022-12-18T01:50:43.818Z,-6.56
2022-12-18T01:53:24.874Z,-6.59
2022-12-18T01:55:58.602Z,-6.58
2022-12-18T01:58:42.337Z,-6.60
2022-12-18T02:01:10.252Z,-6.62
2022-12-18T02:03:37.829Z,-6.63
2022-12-18T02:06:18.005Z,-6.63
2022-12-18T02:09:35.832Z,-6.64
2022-12-18T02:12:19.192Z,-6.66
2022-12-18T02:15:13.735Z,-6.68
2022-12-18T02:18:05.323Z,-6.71
2022-12-18T02:20:48.095Z,-6.73
2022-12-18T02:24:13.704Z,-6.77
2022-12-18T02:26:56.191Z,-6.83
2022-12-18T02:29:38.634Z,-6.83
2022-12-18T02:32:15.714Z,-6.87
2022-12-18T02:34:45.214Z,-6.88
2022-12-18T02:37:20.143Z,-6.91
2022-12-18T02:39:53.522Z,-6.91
2022-12-18T02:42:22.071Z,-6.91
2022-12-18T02:44:52.903Z,-6.89
2022-12-18T02:47:33.747Z,-6.91
2022-12-18T02:50:45.840Z,-6.91
2022-12-18T02:53:32.164Z,-6.90
2022-12-18T02:56:15.295Z,-6.90
2022-12-18T02:59:14.455Z,-6.96
2022-12-18T03:02:08.671Z,-7.00
2022-12-18T03:05:10.711Z,-7.04
2022-12-18T03:07:51.811Z,-7.05
2022-12-18T03:10:29.337Z,-7.07
2022-12-18T03:13:06.905Z,-7.08
2022-12-18T03:15:45.041Z,-7.12
2022-12-18T03:18:29.072Z,-7.16
2022-12-18T03:21:05.713Z,-7.19
2022-12-18T03:23:44.051Z,-7.21
2022-12-18T03:26:20.683Z,-7.22
2022-12-18T03:29:10.736Z,-7.24
2022-12-18T03:31:42.008Z,-7.26
2022-12-18T03:34:21.232Z,-7.27
2022-12-18T03:36:48.398Z,-7.28
2022-12-18T03:39:16.014Z,-7.29
2022-12-18T03:41:56.416Z,-7.30
2022-12-18T03:44:56.828Z,-7.29
2022-12-18T03:47:40.721Z,-7.30
2022-12-18T03:50:23.160Z,-7.29
2022-12-18T03:53:00.719Z,-7.29
2022-12-18T03:55:35.523Z,-7.29
2022-12-18T03:58:08.788Z,-7.29
2022-12-18T04:00:53.191Z,-7.28
2022-12-18T04:03:26.130Z,-7.27
2022-12-18T04:05:57.109Z,-7.26
2022-12-18T04:08:26.592Z,-7.26
2022-12-18T04:11:03.035Z,-7.25
2022-12-18T04:13:36.745Z,-7.25
2022-12-18T04:16:07.680Z,-7.26
2022-12-18T04:18:35.594Z,-7.27
2022-12-18T04:21:03.824Z,-7.26
2022-12-18T04:23:30.587Z,-7.25
2022-12-18T04:25:59.306Z,-7.25
2022-12-18T04:28:46.894Z,-7.23
2022-12-18T04:31:14.171Z,-7.22
2022-12-18T04:33:41.360Z,-7.21
2022-12-18T04:36:08.988Z,-7.22
2022-12-18T04:38:35.927Z,-7.20
2022-12-18T04:41:08.069Z,-7.19
2022-12-18T04:43:37.455Z,-7.19
2022-12-18T04:46:07.335Z,-7.18
2022-12-18T04:48:35.038Z,-7.17
2022-12-18T04:51:03.679Z,-7.16
2022-12-18T04:53:30.427Z,-7.17
2022-12-18T04:56:09.687Z,-7.17
2022-12-18T04:58:38.550Z,-7.16
2022-12-18T05:01:06.210Z,-7.16
2022-12-18T05:03:33.138Z,-7.16
2022-12-18T05:06:00.316Z,-7.16
2022-12-18T05:08:27.298Z,-7.17
2022-12-18T05:11:02.886Z,-7.19
2022-12-18T05:13:30.435Z,-7.19
2022-12-18T05:15:57.337Z,-7.21
2022-12-18T05:18:25.763Z,-7.22
2022-12-18T05:20:54.256Z,-7.20
2022-12-18T05:23:23.800Z,-7.20
2022-12-18T05:25:55.208Z,-7.20
2022-12-18T05:28:23.132Z,-7.22
2022-12-18T05:30:55.964Z,-7.24
2022-12-18T05:33:28.180Z,-7.26
2022-12-18T05:36:00.567Z,-7.30
2022-12-18T05:38:29.969Z,-7.33
2022-12-18T05:40:58.168Z,-7.37
2022-12-18T05:43:27.562Z,-7.38
2022-12-18T05:45:55.610Z,-7.40
2022-12-18T05:48:22.856Z,-7.39
2022-12-18T05:50:51.414Z,-7.37
2022-12-18T05:53:20.897Z,-7.36
2022-12-18T05:55:48.639Z,-7.35
2022-12-18T05:58:15.876Z,-7.35
2022-12-18T06:00:46.383Z,-7.33
2022-12-18T06:03:14.820Z,-7.32
2022-12-18T06:05:45.365Z,-7.33
2022-12-18T06:08:14.195Z,-7.32
2022-12-18T06:10:42.510Z,-7.32
2022-12-18T06:13:09.672Z,-7.33
2022-12-18T06:15:39.927Z,-7.32
2022-12-18T06:18:06.819Z,-7.30
2022-12-18T06:20:34.103Z,-7.27
2022-12-18T06:23:01.271Z,-7.25
2022-12-18T06:25:28.212Z,-7.23
2022-12-18T06:27:55.087Z,-7.21
2022-12-18T06:30:22.018Z,-7.20
2022-12-18T06:32:56.541Z,-7.19
2022-12-18T06:35:24.790Z,-7.18
2022-12-18T06:37:51.838Z,-7.16
2022-12-18T06:40:19.286Z,-7.16
2022-12-18T06:42:46.046Z,-7.15
2022-12-18T06:45:12.808Z,-7.15
2022-12-18T06:47:39.536Z,-7.14
2022-12-18T06:50:07.175Z,-7.15
2022-12-18T06:52:34.769Z,-7.14
2022-12-18T06:55:01.818Z,-7.13
2022-12-18T06:57:28.514Z,-7.11
2022-12-18T06:59:55.424Z,-7.08
2022-12-18T07:02:22.251Z,-7.06
2022-12-18T07:04:51.626Z,-7.03
2022-12-18T07:07:18.859Z,-7.01
2022-12-18T07:09:45.625Z,-7.01
2022-12-18T07:12:12.468Z,-7.00
2022-12-18T07:14:39.255Z,-6.98
2022-12-18T07:17:06.597Z,-6.95
2022-12-18T07:19:34.231Z,-6.91
2022-12-18T07:22:01.444Z,-6.88
2022-12-18T07:24:28.858Z,-6.85
2022-12-18T07:26:55.598Z,-6.83
2022-12-18T07:29:22.363Z,-6.80
2022-12-18T07:31:49.146Z,-6.78
2022-12-18T07:34:16.356Z,-6.78
2022-12-18T07:36:43.834Z,-6.75
2022-12-18T07:39:12.744Z,-6.75
2022-12-18T07:41:46.797Z,-6.72
2022-12-18T07:44:16.286Z,-6.70
2022-12-18T07:46:43.117Z,-6.69
2022-12-18T07:49:09.832Z,-6.66
2022-12-18T07:51:36.543Z,-6.63
2022-12-18T07:54:03.327Z,-6.60
2022-12-18T07:56:31.471Z,-6.54
2022-12-18T07:59:00.197Z,-6.48
2022-12-18T08:01:27.760Z,-6.42
2022-12-18T08:03:54.657Z,-6.39
2022-12-18T08:06:24.026Z,-6.35
2022-12-18T08:08:54.064Z,-6.29
2022-12-18T08:11:22.106Z,-6.24
2022-12-18T08:13:48.851Z,-6.19
2022-12-18T08:16:16.766Z,-6.13
2022-12-18T08:18:43.578Z,-6.08
2022-12-18T08:21:16.025Z,-6.02
2022-12-18T08:23:43.794Z,-5.96
2022-12-18T08:26:12.631Z,-5.93
2022-12-18T08:28:39.728Z,-5.88
2022-12-18T08:31:07.605Z,-5.82
2022-12-18T08:33:36.576Z,-5.74
2022-12-18T08:36:05.163Z,-5.67
2022-12-18T08:38:33.754Z,-5.62
2022-12-18T08:41:10.419Z,-5.55
2022-12-18T08:43:55.940Z,-5.51
2022-12-18T08:46:24.915Z,-5.43
2022-12-18T08:48:53.737Z,-5.41
2022-12-18T08:51:21.204Z,-5.36
2022-12-18T08:53:48.247Z,-5.32
2022-12-18T08:56:16.232Z,-5.30
2022-12-18T08:58:43.710Z,-5.27
2022-12-18T09:01:13.162Z,-5.22
2022-12-18T09:03:41.026Z,-5.16
2022-12-18T09:06:08.813Z,-5.10
2022-12-18T09:08:35.800Z,-5.03
2022-12-18T09:11:03.713Z,-4.97
2022-12-18T09:13:30.497Z,-4.90
2022-12-18T09:15:57.435Z,-4.82
2022-12-18T09:18:26.071Z,-4.77
2022-12-18T09:20:53.887Z,-4.69
2022-12-18T09:23:21.756Z,-4.62
2022-12-18T09:25:49.280Z,-4.57
2022-12-18T09:28:19.102Z,-4.49
2022-12-18T09:30:50.015Z,-4.43
2022-12-18T09:33:18.062Z,-4.36
2022-12-18T09:35:46.618Z,-4.32
2022-12-18T09:38:17.884Z,-4.26
2022-12-18T09:40:48.311Z,-4.19
2022-12-18T09:43:42.299Z,-4.12
2022-12-18T09:46:18.655Z,-4.04
2022-12-18T09:48:55.738Z,-4.00
2022-12-18T09:51:31.117Z,-3.96
2022-12-18T09:54:49.882Z,-3.92
2022-12-18T09:57:23.127Z,-3.84
2022-12-18T10:00:03.817Z,-3.76
2022-12-18T10:02:38.612Z,-3.67
2022-12-18T10:05:06.381Z,-3.59
2022-12-18T10:08:14.438Z,-3.47
2022-12-18T10:10:53.338Z,-3.42
2022-12-18T10:13:48.663Z,-3.33
2022-12-18T10:17:02.903Z,-3.27
2022-12-18T10:19:50.225Z,-3.22
2022-12-18T10:22:45.597Z,-3.13
2022-12-18T10:25:29.669Z,-3.03
2022-12-18T10:28:08.570Z,-2.96
2022-12-18T10:30:35.308Z,-2.98
2022-12-18T10:33:03.996Z,-2.96
2022-12-18T10:35:30.772Z,-2.94
2022-12-18T10:38:28.837Z,-2.94
2022-12-18T10:41:29.216Z,-2.87
2022-12-18T10:44:21.229Z,-2.86
2022-12-18T10:46:54.696Z,-2.79
2022-12-18T10:49:29.641Z,-2.75
2022-12-18T10:52:19.521Z,-2.67
2022-12-18T10:54:54.356Z,-2.61
2022-12-18T10:57:27.077Z,-2.57
2022-12-18T10:59:57.096Z,-2.51
2022-12-18T11:02:39.416Z,-2.45
2022-12-18T11:05:34.920Z,-2.41
2022-12-18T11:08:02.558Z,-2.40
2022-12-18T11:10:40.954Z,-2.41
2022-12-18T11:13:24.660Z,-2.38
2022-12-18T11:15:52.259Z,-2.36
2022-12-18T11:18:28.193Z,-2.32
2022-12-18T11:21:09.018Z,-2.25
2022-12-18T11:23:38.442Z,-2.19
2022-12-18T11:26:07.115Z,-2.11
2022-12-18T11:29:09.502Z,-2.06
2022-12-18T11:31:36.357Z,-2.00
2022-12-18T11:34:31.016Z,-1.99
2022-12-18T11:37:01.970Z,-1.98
2022-12-18T11:39:53.812Z,-1.92
2022-12-18T11:42:40.619Z,-1.86
2022-12-18T11:45:13.843Z,-1.83
2022-12-18T11:47:47.388Z,-1.82
2022-12-18T11:50:24.862Z,-1.78
2022-12-18T11:52:57.370Z,-1.78
2022-12-18T11:56:08.788Z,-1.76
2022-12-18T11:58:48.094Z,-1.73
2022-12-18T12:01:52.875Z,-1.70
2022-12-18T12:04:35.658Z,-1.67
2022-12-18T12:07:25.002Z,-1.66
2022-12-18T12:10:02.043Z,-1.63
2022-12-18T12:12:48.669Z,-1.63
2022-12-18T12:15:39.498Z,-1.59
2022-12-18T12:18:27.332Z,-1.56
2022-12-18T12:21:11.730Z,-1.58
2022-12-18T12:23:59.682Z,-1.57
2022-12-18T12:26:38.559Z,-1.56
2022-12-18T12:29:30.178Z,-1.50
2022-12-18T12:32:40.588Z,-1.46
2022-12-18T12:35:10.214Z,-1.44
2022-12-18T12:38:04.045Z,-1.42
2022-12-18T12:41:00.590Z,-1.38
2022-12-18T12:43:47.951Z,-1.32
2022-12-18T12:46:22.809Z,-1.28
2022-12-18T12:49:10.920Z,-1.25
2022-12-18T12:51:42.668Z,-1.25
2022-12-18T12:54:26.931Z,-1.23
2022-12-18T12:57:23.195Z,-1.24
2022-12-18T13:00:09.676Z,-1.23
2022-12-18T13:02:47.689Z,-1.21
2022-12-18T13:05:29.518Z,-1.20
2022-12-18T13:08:08.521Z,-1.21
2022-12-18T13:10:44.906Z,-1.17
2022-12-18T13:13:17.911Z,-1.15
2022-12-18T13:16:09.430Z,-1.17
2022-12-18T13:18:36.707Z,-1.17
2022-12-18T13:21:24.356Z,-1.10
2022-12-18T13:23:51.874Z,-1.09
2022-12-18T13:26:21.959Z,-1.07
2022-12-18T13:28:57.249Z,-1.06
2022-12-18T13:31:42.538Z,-1.04
2022-12-18T13:34:26.822Z,-1.05
2022-12-18T13:37:17.703Z,-1.06
2022-12-18T13:39:44.809Z,-1.06
2022-12-18T13:42:37.585Z,-1.07
2022-12-18T13:45:47.626Z,-1.05
2022-12-18T13:48:26.254Z,-1.07
2022-12-18T13:51:11.017Z,-1.06
2022-12-18T13:53:50.647Z,-1.06
2022-12-18T13:56:30.288Z,-1.05
2022-12-18T13:59:25.029Z,-1.05
2022-12-18T14:01:59.611Z,-1.05
2022-12-18T14:04:35.578Z,-1.07
2022-12-18T14:07:13.661Z,-1.06
2022-12-18T14:09:52.325Z,-1.05
2022-12-18T14:12:44.674Z,-1.04
2022-12-18T14:15:27.386Z,-1.06
2022-12-18T14:18:02.294Z,-1.05
2022-12-18T14:20:33.943Z,-1.06
2022-12-18T14:23:01.292Z,-1.01
2022-12-18T14:25:30.900Z,-0.98
2022-12-18T14:28:14.492Z,-0.98
2022-12-18T14:30:46.945Z,-1.00
2022-12-18T14:33:23.543Z,-1.01
2022-12-18T14:36:18.147Z,-0.98
2022-12-18T14:38:54.827Z,-0.97
2022-12-18T14:41:23.327Z,-0.99
2022-12-18T14:43:53.347Z,-0.93
2022-12-18T14:46:37.885Z,-0.93
2022-12-18T14:49:30.517Z,-0.97
2022-12-18T14:52:00.882Z,-0.97
2022-12-18T14:54:30.438Z,-0.99
2022-12-18T14:57:17.387Z,-0.98
2022-12-18T14:59:44.178Z,-0.99
2022-12-18T15:02:24.570Z,-0.98
2022-12-18T15:05:16.511Z,-0.95
2022-12-18T15:07:46.987Z,-0.93
2022-12-18T15:10:17.158Z,-0.96
2022-12-18T15:12:48.457Z,-0.98
2022-12-18T15:15:34.261Z,-0.96
2022-12-18T15:18:04.716Z,-0.93
2022-12-18T15:20:34.411Z,-0.91
2022-12-18T15:23:01.166Z,-0.90
2022-12-18T15:25:37.875Z,-0.94
2022-12-18T15:28:22.794Z,-0.88
2022-12-18T15:31:17.430Z,-0.85
2022-12-18T15:33:54.018Z,-0.75
2022-12-18T15:36:26.552Z,-0.81
2022-12-18T15:39:04.576Z,-0.87
2022-12-18T15:41:36.695Z,-0.90
2022-12-18T15:44:24.471Z,-0.88
2022-12-18T15:46:51.226Z,-0.85
2022-12-18T15:49:17.922Z,-0.87
2022-12-18T15:51:45.003Z,-0.92
2022-12-18T15:54:17.133Z,-0.93
2022-12-18T15:57:02.455Z,-0.90
2022-12-18T15:59:29.418Z,-0.84
2022-12-18T16:01:57.738Z,-0.84
2022-12-18T16:04:25.651Z,-0.84
2022-12-18T16:07:14.463Z,-0.93
2022-12-18T16:09:42.831Z,-1.00
2022-12-18T16:12:23.640Z,-1.06
2022-12-18T16:14:51.165Z,-1.04
2022-12-18T16:17:18.597Z,-1.03
2022-12-18T16:19:45.892Z,-1.07
2022-12-18T16:22:29.921Z,-1.08
2022-12-18T16:24:58.616Z,-1.08
2022-12-18T16:27:26.280Z,-1.03
2022-12-18T16:29:53.074Z,-1.00
2022-12-18T16:32:23.423Z,-1.00
2022-12-18T16:34:50.408Z,-1.04
2022-12-18T16:37:17.592Z,-1.04
2022-12-18T16:39:45.655Z,-1.04
2022-12-18T16:42:19.822Z,-1.02
2022-12-18T16:44:49.162Z,-1.00
2022-12-18T16:47:17.519Z,-0.94
2022-12-18T16:49:45.960Z,-0.93
2022-12-18T16:52:13.951Z,-0.98
2022-12-18T16:54:40.886Z,-1.01
2022-12-18T16:57:09.601Z,-1.01
2022-12-18T16:59:36.382Z,-1.00
2022-12-18T17:02:11.678Z,-0.93
2022-12-18T17:04:38.632Z,-0.97
2022-12-18T17:07:05.449Z,-0.97
2022-12-18T17:09:32.401Z,-0.98
2022-12-18T17:12:03.956Z,-1.01
2022-12-18T17:14:33.325Z,-1.03
2022-12-18T17:17:20.976Z,-0.98
2022-12-18T17:19:47.839Z,-0.97
2022-12-18T17:22:14.571Z,-0.94
2022-12-18T17:24:41.296Z,-0.96
2022-12-18T17:27:08.897Z,-0.93
2022-12-18T17:29:35.949Z,-0.84
2022-12-18T17:32:02.832Z,-0.89
2022-12-18T17:34:29.990Z,-0.87
2022-12-18T17:36:57.548Z,-0.78
2022-12-18T17:39:24.333Z,-0.80
2022-12-18T17:41:51.095Z,-0.82
2022-12-18T17:44:18.739Z,-0.84
2022-12-18T17:46:46.112Z,-0.83
2022-12-18T17:49:14.570Z,-0.77
2022-12-18T17:51:43.003Z,-0.72
2022-12-18T17:54:11.214Z,-0.70
2022-12-18T17:56:38.838Z,-0.67
2022-12-18T17:59:07.205Z,-0.63
2022-12-18T18:01:38.500Z,-0.61
2022-12-18T18:04:09.398Z,-0.61
2022-12-18T18:06:38.683Z,-0.55
2022-12-18T18:09:16.283Z,-0.64
2022-12-18T18:12:05.371Z,-0.66
2022-12-18T18:14:33.061Z,-0.61
2022-12-18T18:17:04.048Z,-0.59
2022-12-18T18:19:32.984Z,-0.65
2022-12-18T18:22:00.179Z,-0.67
2022-12-18T18:24:27.114Z,-0.61
2022-12-18T18:26:56.842Z,-0.63
2022-12-18T18:29:26.594Z,-0.59
2022-12-18T18:31:53.932Z,-0.65
2022-12-18T18:34:24.368Z,-0.62
2022-12-18T18:36:51.496Z,-0.62
2022-12-18T18:39:18.798Z,-0.66
2022-12-18T18:41:47.898Z,-0.64
2022-12-18T18:44:16.949Z,-0.67
2022-12-18T18:46:44.874Z,-0.72
2022-12-18T18:49:13.715Z,-0.73
2022-12-18T18:51:42.158Z,-0.71
2022-12-18T18:54:10.066Z,-0.70
2022-12-18T18:57:04.131Z,-0.66
2022-12-18T18:59:24.446Z,-0.67
2022-12-18T19:01:58.302Z,-0.69
2022-12-18T19:04:25.149Z,-0.67
2022-12-18T19:06:52.871Z,-0.66
2022-12-18T19:09:19.725Z,-0.61
2022-12-18T19:12:04.939Z,-0.52
2022-12-18T19:14:31.871Z,-0.50
2022-12-18T19:16:58.698Z,-0.48
2022-12-18T19:19:27.095Z,-0.50
2022-12-18T19:21:53.920Z,-0.51
2022-12-18T19:24:22.394Z,-0.45
2022-12-18T19:26:49.390Z,-0.44
2022-12-18T19:29:16.223Z,-0.41
2022-12-18T19:31:43.177Z,-0.42
2022-12-18T19:34:10.027Z,-0.39
2022-12-18T19:36:40.343Z,-0.41
2022-12-18T19:39:17.991Z,-0.42
2022-12-18T19:41:46.727Z,-0.42
2022-12-18T19:44:17.091Z,-0.42
2022-12-18T19:46:46.173Z,-0.42
2022-12-18T19:49:17.295Z,-0.39
2022-12-18T19:51:45.448Z,-0.42
2022-12-18T19:54:17.133Z,-0.46
2022-12-18T19:56:45.863Z,-0.53
2022-12-18T19:59:13.812Z,-0.56
2022-12-18T20:01:41.431Z,-0.61
2022-12-18T20:04:08.462Z,-0.68
2022-12-18T20:06:48.718Z,-0.76
2022-12-18T20:09:15.765Z,-0.84
2022-12-18T20:11:43.377Z,-0.85
2022-12-18T20:14:12.328Z,-0.85
2022-12-18T20:16:39.663Z,-0.86
2022-12-18T20:19:08.787Z,-0.86
2022-12-18T20:21:36.405Z,-0.83
2022-12-18T20:24:03.427Z,-0.86
2022-12-18T20:26:30.407Z,-0.84
2022-12-18T20:28:57.193Z,-0.86
2022-12-18T20:31:24.724Z,-0.88
2022-12-18T20:33:54.382Z,-0.88
2022-12-18T20:36:23.484Z,-0.89
2022-12-18T20:38:57.222Z,-0.89
2022-12-18T20:41:27.377Z,-0.91
2022-12-18T20:44:06.268Z,-0.89
2022-12-18T20:46:37.769Z,-0.87
2022-12-18T20:49:04.536Z,-0.89
2022-12-18T20:51:32.293Z,-0.86
2022-12-18T20:53:59.702Z,-0.83
2022-12-18T20:56:30.660Z,-0.83
2022-12-18T20:58:59.966Z,-0.80
2022-12-18T21:01:29.683Z,-0.76
2022-12-18T21:03:57.248Z,-0.79
2022-12-18T21:06:24.969Z,-0.80
2022-12-18T21:08:51.808Z,-0.81
2022-12-18T21:11:40.320Z,-0.79
2022-12-18T21:14:14.280Z,-0.81
2022-12-18T21:16:43.776Z,-0.79
2022-12-18T21:19:13.270Z,-0.76
2022-12-18T21:21:41.534Z,-0.74
2022-12-18T21:24:09.885Z,-0.74
2022-12-18T21:26:44.872Z,-0.71
2022-12-18T21:29:16.722Z,-0.71
2022-12-18T21:31:45.447Z,-0.71
2022-12-18T21:34:23.248Z,-0.68
2022-12-18T21:36:50.253Z,-0.60
2022-12-18T21:39:17.673Z,-0.58
2022-12-18T21:42:05.061Z,-0.58
2022-12-18T21:44:36.326Z,-0.59
2022-12-18T21:47:22.387Z,-0.58
2022-12-18T21:49:52.010Z,-0.61
2022-12-18T21:52:21.641Z,-0.56
2022-12-18T21:55:01.908Z,-0.57
2022-12-18T21:57:35.057Z,-0.57
2022-12-18T22:00:02.245Z,-0.58
2022-12-18T22:02:39.330Z,-0.54
2022-12-18T22:05:07.099Z,-0.56
2022-12-18T22:07:34.096Z,-0.53
2022-12-18T22:10:02.090Z,-0.54
2022-12-18T22:12:43.369Z,-0.52
2022-12-18T22:15:21.036Z,-0.54
2022-12-18T22:17:50.629Z,-0.53
2022-12-18T22:20:20.032Z,-0.58
2022-12-18T22:22:48.247Z,-0.61
2022-12-18T22:25:15.032Z,-0.64
2022-12-18T22:27:41.820Z,-0.60
2022-12-18T22:30:11.202Z,-0.59
2022-12-18T22:32:37.933Z,-0.56
2022-12-18T22:35:09.534Z,-0.55
2022-12-18T22:37:41.074Z,-0.59
2022-12-18T22:40:22.232Z,-0.55
2022-12-18T22:42:51.435Z,-0.52
2022-12-18T22:45:20.304Z,-0.53
2022-12-18T22:47:47.130Z,-0.53
2022-12-18T22:50:15.364Z,-0.53
2022-12-18T22:52:42.533Z,-0.51
2022-12-18T22:55:09.526Z,-0.50
2022-12-18T22:57:36.466Z,-0.46
2022-12-18T23:00:06.463Z,-0.48
2022-12-18T23:02:33.316Z,-0.46
2022-12-18T23:05:00.140Z,-0.48
2022-12-18T23:07:26.929Z,-0.48
2022-12-18T23:10:00.635Z,-0.46
2022-12-18T23:12:28.121Z,-0.41
2022-12-18T23:14:54.896Z,-0.42
2022-12-18T23:17:21.768Z,-0.43
2022-12-18T23:19:49.362Z,-0.45
2022-12-18T23:22:17.751Z,-0.46
2022-12-18T23:24:44.574Z,-0.46
2022-12-18T23:27:11.769Z,-0.33
2022-12-18T23:29:40.039Z,-0.25
2022-12-18T23:32:07.678Z,-0.22
2022-12-18T23:34:34.797Z,-0.24
2022-12-18T23:37:03.545Z,-0.31
2022-12-18T23:39:30.522Z,-0.35
2022-12-18T23:42:01.469Z,-0.32
2022-12-18T23:44:28.509Z,-0.30
2022-12-18T23:46:55.535Z,-0.34
2022-12-18T23:49:22.972Z,-0.34
2022-12-18T23:51:50.317Z,-0.32
2022-12-18T23:54:17.560Z,-0.26
2022-12-18T23:56:49.438Z,-0.26
2022-12-18T23:59:16.248Z,-0.19
